Marblehead, Ohio
Current Conditions -  °F | °C
As of 10:12 AM on Wednesday 26 Nov 2014 (Local Time) from KPCW Reporting Station
Overcast Overcast  
Wind Chill: 23°   Ceiling: 2900
Heat Index: 30°   Visibility: 10mi
Dew Point: 23°   Wind: 8mph
Humidity: 75%   Direction: 10°N
Pressure: 30.14"   Gusts: NA
Location:  41.5249°N, 82.7767°W
Report Text: KPCW 261512Z AUTO 01007KT 10SM OVC029 M01/M05 A3014 RMK AO2 $
Loading
Personal Weather Stations






























Interactive Weather Map New forecast layout! Learn more

10-Day Weather Forecast

Advertisements
Track Severe Weather on mobile